Healdton, OK (73438)

3:00 PM CDT on September 17, 2014 (GMT -0500)
Carter County Dist 2 | Change Station
CLOSE
Current Station
Personal Weather Station
Location: Healdton, OK
Elevation: 933 ft
Nearby Weather Stations

Elev 933 ft 34.25 °N, 97.50 °W | Updated 9 minutes ago

Partly Cloudy
Partly Cloudy
89.2 °F
Feels Like 97 °F
N
0.0
Wind Variable Wind from SSW
Gusts 0.0 mph

Today
High -- | Low -- °F
--% Chance of Precip.
Yesterday
High -- | Low -- °F
Precip. -- in
7:14 AM 7:33 PM
Waning Crescent, 33% visible
Pressure 29.90 in
Visibility 10.0 miles
Clouds Scattered Clouds 4300 ft
Scattered Clouds 5000 ft
Scattered Clouds 6000 ft
Heat Index 97 °F
Dew Point 72 °F
Humidity 58%
Rainfall 0.00 in
Snow Depth Not available.
UV 7 out of 12
Pollen 10.50 out of 12
Air Quality Not available.
Flu Activity Not available.
METAR K1F0 171935Z AUTO 00000KT 10SM SCT043 SCT050 SCT060 31/19 A2990 RMK AO2

More Conditions Fewer Conditions

Pressure 29.90 in
Visibility 10.0 miles
Clouds Scattered Clouds 4300 ft
Scattered Clouds 5000 ft
Scattered Clouds 6000 ft
Heat Index 97 °F
Dew Point 72 °F
Humidity 58%
Rainfall 0.00 in
Snow Depth Not available.
UV 7 out of 12
Pollen 10.50 out of 12
Air Quality Not available.
Flu Activity Not available.
METAR K1F0 171935Z AUTO 00000KT 10SM SCT043 SCT050 SCT060 31/19 A2990 RMK AO2

More Conditions Fewer Conditions

10-Day Weather Forecast

Almanac

Astronomy

Sep. 17, 2014 Rise Set
Actual Time 7:14 AM CDT 7:33 PM CDT
Civil Twilight 6:49 AM CDT 7:58 PM CDT
Nautical Twilight 6:20 AM CDT 8:28 PM CDT
Astronomical Twilight 5:50 AM CDT 8:57 PM CDT
Moon 1:26 AM CDT 3:33 PM CDT
Length of Visible Light 13h 09m
Length of Day
12h 19m
Tomorrow will be 2m 6s shorter.
Waning Crescent, 33% of the Moon is Illuminated
Today
Waning Crescent
Sep 24
New
Oct 1
First Quarter
Oct 8
Full
Oct 15
Last Quarter

Today's Extremes

State Highs State Lows

Community

WunderPhotos

Upload Photos

1,754,154 photos uploaded!

Nearby

Snow Depth

Station Depth Elevation
No new snow has been reported.

Earthquake Activity

City Distance Mag. Time & Date
Guthrie, Oklahoma 109 miles 2.5 11:33 AM CDT
2014-09-17
Perry, Oklahoma 135 miles 3.5 8:21 AM CDT
2014-09-17
Yale, Oklahoma 137 miles 3.3 7:02 AM CDT
2014-09-17
Yale, Oklahoma 137 miles 3.0 6:58 AM CDT
2014-09-17
Minimum magnitude displayed is 2.5.

Coastal Water Temperatures

Place Temperature
No Stations Reporting

Nearby Weather Stations